Time;durP1;ratioP1;P1;durP2;ratioP2;P2;SDS_P1;SDS_P2;PMS_P1;PMS_P2;Temp;Humidity;BMP_temperature;BMP_pressure;BME280_temperature;BME280_humidity;BME280_pressure;Samples;Min_cycle;Max_cycle;Signal;HPM_P1;HPM_P2
2024/02/03 00:00:20;;;;;;;;;;;;;;;;;;5043724;28;20251;-79
2024/02/03 00:02:47;;;;;;;;;;;;;;;;;;5045894;28;19929;-79
2024/02/03 00:05:14;;;;;;;;;;;;;;;;;;5047741;28;19951;-79
2024/02/03 00:07:41;;;;;;;;;;;;;;;;;;5047972;28;19976;-79
2024/02/03 00:10:08;;;;;;;;;;;;;;;;;;5048176;28;20445;-79
2024/02/03 00:12:35;;;;;;;;;;;;;;;;;;5045894;28;20391;-82
2024/02/03 00:15:02;;;;;;;;;;;;;;;;;;5047874;28;20398;-81
2024/02/03 00:17:29;;;;;;;;;;;;;;;;;;5047984;28;20005;-78
2024/02/03 00:19:56;;;;;;;;;;;;;;;;;;5047475;28;19933;-82
2024/02/03 00:22:23;;;;;;;;;;;;;;;;;;5052043;28;19935;-79
2024/02/03 00:24:50;;;;;;;;;;;;;;;;;;5052698;28;19981;-81
2024/02/03 00:27:17;;;;;;;;;;;;;;;;;;5042986;28;20027;-81
2024/02/03 00:29:44;;;;;;;;;;;;;;;;;;5051833;28;19929;-79
2024/02/03 00:32:11;;;;;;;;;;;;;;;;;;5052136;28;20338;-78
2024/02/03 00:34:39;;;;;;;;;;;;;;;;;;5051485;28;19952;-77
2024/02/03 00:37:06;;;;;;;;;;;;;;;;;;5046430;28;19986;-79
2024/02/03 00:39:33;;;;;;;;;;;;;;;;;;5052719;28;19936;-80
2024/02/03 00:42:00;;;;;;;;;;;;;;;;;;5053669;28;19928;-78
2024/02/03 00:44:27;;;;;;;;;;;;;;;;;;5040105;28;19928;-78
2024/02/03 00:46:54;;;;;;;;;;;;;;;;;;5051606;28;19935;-78
2024/02/03 00:49:21;;;;;;;;;;;;;;;;;;5051725;28;19987;-79
2024/02/03 00:51:48;;;;;;;;;;;;;;;;;;5052330;28;19994;-79
2024/02/03 00:54:15;;;;;;;;;;;;;;;;;;5052398;28;19936;-79
2024/02/03 00:56:42;;;;;;;;;;;;;;;;;;5051455;28;19928;-78
2024/02/03 00:59:10;;;;;;;;;;;;;;;;;;5051525;28;20327;-78
2024/02/03 01:01:37;;;;;;;;;;;;;;;;;;5038710;28;19948;-78
2024/02/03 01:04:04;;;;;;;;;;;;;;;;;;5051540;28;19959;-79
2024/02/03 01:06:31;;;;;;;;;;;;;;;;;;5051484;28;19929;-79
2024/02/03 01:08:58;;;;;;;;;;;;;;;;;;5051688;28;19928;-77
2024/02/03 01:11:25;;;;;;;;;;;;;;;;;;5051629;28;19937;-80
2024/02/03 01:13:52;;;;;;;;;;;;;;;;;;5049429;28;19990;-79
2024/02/03 01:16:21;;;;;;;;;;;;;;;;;;5051679;28;19932;-77
2024/02/03 01:18:48;;;;;;;;;;;;;;;;;;5050958;28;19982;-79
2024/02/03 01:21:15;;;;;;;;;;;;;;;;;;5051212;28;20388;-79
2024/02/03 01:23:42;;;;;;;;;;;;;;;;;;5037273;28;19999;-77
2024/02/03 01:26:09;;;;;;;;;;;;;;;;;;5050296;28;19929;-77
2024/02/03 01:28:36;;;;;;;;;;;;;;;;;;5049087;28;19933;-78
2024/02/03 01:31:03;;;;;;;;;;;;;;;;;;5051995;28;19994;-82
2024/02/03 01:33:31;;;;;;;;;;;;;;;;;;5051162;28;19955;-79
2024/02/03 01:35:58;;;;;;;;;;;;;;;;;;5051549;28;19959;-79
2024/02/03 01:38:25;;;;;;;;;;;;;;;;;;5051155;28;19929;-80
2024/02/03 01:40:52;;;;;;;;;;;;;;;;;;5050890;28;19929;-78
2024/02/03 01:43:19;;;;;;;;;;;;;;;;;;5047296;28;19940;-79
2024/02/03 01:45:46;;;;;;;;;;;;;;;;;;5047804;28;19936;-78
2024/02/03 01:48:14;;;;;;;;;;;;;;;;;;5048890;28;19935;-78
2024/02/03 01:50:41;;;;;;;;;;;;;;;;;;5043896;28;19999;-79
2024/02/03 01:53:08;;;;;;;;;;;;;;;;;;5043251;28;19933;-78
2024/02/03 01:55:35;;;;;;;;;;;;;;;;;;5043557;28;19940;-79
2024/02/03 01:58:02;;;;;;;;;;;;;;;;;;5046556;28;20312;-78
2024/02/03 02:00:30;;;;;;;;;;;;;;;;;;5045711;28;19940;-78
2024/02/03 02:02:57;;;;;;;;;;;;;;;;;;5045544;28;19933;-79
2024/02/03 02:05:24;;;;;;;;;;;;;;;;;;5048308;28;19987;-80
2024/02/03 02:07:51;;;;;;;;;;;;;;;;;;5046612;28;19936;-79
2024/02/03 02:10:18;;;;;;;;;;;;;;;;;;5041971;28;19933;-79
2024/02/03 02:12:45;;;;;;;;;;;;;;;;;;5045184;28;19929;-78
2024/02/03 02:15:12;;;;;;;;;;;;;;;;;;5044909;28;19982;-79
2024/02/03 02:17:39;;;;;;;;;;;;;;;;;;5044104;28;19935;-79
2024/02/03 02:20:07;;;;;;;;;;;;;;;;;;5044939;28;20541;-79
2024/02/03 02:22:34;;;;;;;;;;;;;;;;;;5047462;28;19933;-81
2024/02/03 02:25:01;;;;;;;;;;;;;;;;;;5046682;28;19929;-78
2024/02/03 02:27:28;;;;;;;;;;;;;;;;;;5047608;28;19933;-80
2024/02/03 02:29:55;;;;;;;;;;;;;;;;;;5046647;28;19940;-79
2024/02/03 02:32:22;;;;;;;;;;;;;;;;;;5048645;28;19928;-81
2024/02/03 02:34:49;;;;;;;;;;;;;;;;;;5049044;28;19929;-79
2024/02/03 02:37:16;;;;;;;;;;;;;;;;;;5049063;28;19936;-80
2024/02/03 02:39:43;;;;;;;;;;;;;;;;;;5051203;28;19936;-82
2024/02/03 02:42:10;;;;;;;;;;;;;;;;;;5047752;28;20175;-81
2024/02/03 02:44:37;;;;;;;;;;;;;;;;;;5046889;28;19940;-81
2024/02/03 02:47:04;;;;;;;;;;;;;;;;;;5046727;28;20032;-80
2024/02/03 02:49:32;;;;;;;;;;;;;;;;;;5046714;28;20005;-79
2024/02/03 02:51:59;;;;;;;;;;;;;;;;;;5047645;28;19933;-81
2024/02/03 02:54:26;;;;;;;;;;;;;;;;;;5046247;28;19932;-79
2024/02/03 02:56:53;;;;;;;;;;;;;;;;;;5047276;28;20014;-83
2024/02/03 02:59:20;;;;;;;;;;;;;;;;;;5044669;28;20373;-79
2024/02/03 03:01:47;;;;;;;;;;;;;;;;;;5045248;28;20449;-79
2024/02/03 03:04:14;;;;;;;;;;;;;;;;;;5046575;28;19936;-80
2024/02/03 03:06:41;;;;;;;;;;;;;;;;;;5044567;28;19933;-79
2024/02/03 03:09:08;;;;;;;;;;;;;;;;;;5044019;28;19982;-78
2024/02/03 03:11:35;;;;;;;;;;;;;;;;;;5042246;28;19929;-79
2024/02/03 03:14:03;;;;;;;;;;;;;;;;;;5045185;28;19929;-77
2024/02/03 03:16:30;;;;;;;;;;;;;;;;;;5043567;28;19929;-76
2024/02/03 03:18:57;;;;;;;;;;;;;;;;;;5036413;28;20023;-79
2024/02/03 03:21:24;;;;;;;;;;;;;;;;;;5046419;28;19928;-77
2024/02/03 03:23:51;;;;;;;;;;;;;;;;;;5046807;28;19929;-73
2024/02/03 03:26:18;;;;;;;;;;;;;;;;;;5045659;28;19928;-78
2024/02/03 03:28:45;;;;;;;;;;;;;;;;;;5049789;28;19975;-75
2024/02/03 03:31:12;;;;;;;;;;;;;;;;;;5042437;28;19929;-77
2024/02/03 03:33:39;;;;;;;;;;;;;;;;;;5046585;28;20033;-77
2024/02/03 03:36:06;;;;;;;;;;;;;;;;;;5045310;28;19998;-78
2024/02/03 03:38:34;;;;;;;;;;;;;;;;;;5046452;28;19929;-76
2024/02/03 03:41:01;;;;;;;;;;;;;;;;;;5046913;28;19928;-76
2024/02/03 03:43:28;;;;;;;;;;;;;;;;;;5047432;28;19960;-79
2024/02/03 03:45:55;;;;;;;;;;;;;;;;;;5046289;28;19929;-78
2024/02/03 03:48:22;;;;;;;;;;;;;;;;;;5049160;28;19929;-77
2024/02/03 03:50:49;;;;;;;;;;;;;;;;;;5036853;28;19982;-75
2024/02/03 03:53:16;;;;;;;;;;;;;;;;;;5047099;28;20399;-79
2024/02/03 03:55:43;;;;;;;;;;;;;;;;;;5048780;28;19956;-78
2024/02/03 03:58:11;;;;;;;;;;;;;;;;;;5050557;28;20292;-75
2024/02/03 04:00:38;;;;;;;;;;;;;;;;;;5050967;28;20454;-77
2024/02/03 04:03:05;;;;;;;;;;;;;;;;;;5049174;28;19929;-77
2024/02/03 04:05:34;;;;;;;;;;;;;;;;;;5051086;28;21392;-79
2024/02/03 04:08:03;;;;;;;;;;;;;;;;;;5052441;28;20010;-80
2024/02/03 04:10:30;;;;;;;;;;;;;;;;;;5052044;28;20395;-79
2024/02/03 04:12:57;;;;;;;;;;;;;;;;;;5050916;28;20077;-79
2024/02/03 04:15:24;;;;;;;;;;;;;;;;;;5050718;28;19929;-78
2024/02/03 04:17:52;;;;;;;;;;;;;;;;;;5051560;28;20384;-82
2024/02/03 04:20:19;;;;;;;;;;;;;;;;;;5050630;28;20622;-80
2024/02/03 04:22:46;;;;;;;;;;;;;;;;;;5051444;28;20019;-77
2024/02/03 04:25:13;;;;;;;;;;;;;;;;;;5051269;28;19960;-76
2024/02/03 04:27:40;;;;;;;;;;;;;;;;;;5050611;28;19929;-76
2024/02/03 04:30:07;;;;;;;;;;;;;;;;;;5050259;28;19933;-77
2024/02/03 04:32:34;;;;;;;;;;;;;;;;;;5049838;28;19976;-76
2024/02/03 04:35:01;;;;;;;;;;;;;;;;;;5049919;28;19978;-82
2024/02/03 04:37:28;;;;;;;;;;;;;;;;;;5051328;28;20335;-76
2024/02/03 04:39:56;;;;;;;;;;;;;;;;;;5051777;28;20461;-81
2024/02/03 04:42:23;;;;;;;;;;;;;;;;;;5049379;28;19929;-78
2024/02/03 04:44:50;;;;;;;;;;;;;;;;;;5049829;28;20396;-79
2024/02/03 04:47:17;;;;;;;;;;;;;;;;;;5049444;28;19933;-80
2024/02/03 04:49:44;;;;;;;;;;;;;;;;;;5048988;28;19964;-78
2024/02/03 04:52:11;;;;;;;;;;;;;;;;;;5051132;28;19963;-77
2024/02/03 04:54:38;;;;;;;;;;;;;;;;;;5048479;28;19933;-77
2024/02/03 04:57:05;;;;;;;;;;;;;;;;;;5050733;28;19928;-76
2024/02/03 04:59:32;;;;;;;;;;;;;;;;;;5050298;28;20428;-79
2024/02/03 05:01:59;;;;;;;;;;;;;;;;;;5049953;28;19928;-76
2024/02/03 05:04:26;;;;;;;;;;;;;;;;;;5051617;28;19933;-81
2024/02/03 05:06:52;;;;;;;;;;;;;;;;;;5050205;28;19933;-80
2024/02/03 05:09:20;;;;;;;;;;;;;;;;;;5048830;28;19929;-79
2024/02/03 05:11:47;;;;;;;;;;;;;;;;;;5052491;28;19928;-81
2024/02/03 05:14:14;;;;;;;;;;;;;;;;;;5051448;28;19928;-80
2024/02/03 05:16:41;;;;;;;;;;;;;;;;;;5052137;28;20392;-81
2024/02/03 05:19:09;;;;;;;;;;;;;;;;;;5050364;28;20022;-82
2024/02/03 05:21:36;;;;;;;;;;;;;;;;;;5050523;28;19989;-80
2024/02/03 05:24:03;;;;;;;;;;;;;;;;;;5048338;28;19933;-78
2024/02/03 05:26:30;;;;;;;;;;;;;;;;;;5050495;28;19932;-77
2024/02/03 05:28:57;;;;;;;;;;;;;;;;;;5047868;28;19933;-78
2024/02/03 05:31:25;;;;;;;;;;;;;;;;;;5048978;28;19974;-77
2024/02/03 05:33:52;;;;;;;;;;;;;;;;;;5049822;28;20762;-76
2024/02/03 05:36:19;;;;;;;;;;;;;;;;;;5051487;28;19968;-78
2024/02/03 05:38:46;;;;;;;;;;;;;;;;;;5048556;28;20405;-79
2024/02/03 05:41:13;;;;;;;;;;;;;;;;;;5050265;28;20002;-80
2024/02/03 05:43:40;;;;;;;;;;;;;;;;;;5049585;28;19999;-82
2024/02/03 05:46:07;;;;;;;;;;;;;;;;;;5054534;28;19970;-81
2024/02/03 05:48:34;;;;;;;;;;;;;;;;;;5070132;28;19932;-81
2024/02/03 05:51:01;;;;;;;;;;;;;;;;;;5048843;28;19932;-82
2024/02/03 05:53:30;;;;;;;;;;;;;;;;;;5049077;28;19952;-79
2024/02/03 05:55:57;;;;;;;;;;;;;;;;;;5050726;28;19933;-84
2024/02/03 05:58:25;;;;;;;;;;;;;;;;;;5047772;28;19935;-87
2024/02/03 06:00:52;;;;;;;;;;;;;;;;;;5051739;28;19929;-88
2024/02/03 06:03:19;;;;;;;;;;;;;;;;;;5051333;28;20376;-87
2024/02/03 06:05:46;;;;;;;;;;;;;;;;;;5051399;28;19929;-89
2024/02/03 06:08:13;;;;;;;;;;;;;;;;;;5051561;28;19928;-86
2024/02/03 06:10:40;;;;;;;;;;;;;;;;;;5050487;28;19937;-88
2024/02/03 06:13:07;;;;;;;;;;;;;;;;;;5051390;28;19976;-87
2024/02/03 06:15:34;;;;;;;;;;;;;;;;;;5051131;28;19928;-87
2024/02/03 06:18:01;;;;;;;;;;;;;;;;;;5051537;28;19928;-86
2024/02/03 06:20:28;;;;;;;;;;;;;;;;;;5061605;28;19928;-87
2024/02/03 06:22:55;;;;;;;;;;;;;;;;;;5066443;28;19928;-86
2024/02/03 06:25:22;;;;;;;;;;;;;;;;;;5053998;28;20352;-88
2024/02/03 06:27:49;;;;;;;;;;;;;;;;;;5051544;28;19961;-88
2024/02/03 06:30:16;;;;;;;;;;;;;;;;;;5053246;28;19936;-89
2024/02/03 06:32:43;;;;;;;;;;;;;;;;;;5051579;28;19933;-82
2024/02/03 06:35:10;;;;;;;;;;;;;;;;;;5048741;28;19929;-73
2024/02/03 06:37:37;;;;;;;;;;;;;;;;;;5051595;28;19933;-74
2024/02/03 06:40:04;;;;;;;;;;;;;;;;;;5047881;28;20465;-76
2024/02/03 06:42:31;;;;;;;;;;;;;;;;;;5049299;28;19964;-88
2024/02/03 06:44:58;;;;;;;;;;;;;;;;;;5051724;28;19940;-88
2024/02/03 06:47:25;;;;;;;;;;;;;;;;;;5053006;28;19929;-84
2024/02/03 06:49:52;;;;;;;;;;;;;;;;;;5052963;28;19982;-87
2024/02/03 06:52:19;;;;;;;;;;;;;;;;;;5052438;28;19933;-85
2024/02/03 06:54:46;;;;;;;;;;;;;;;;;;5060442;28;20453;-88
2024/02/03 06:57:13;;;;;;;;;;;;;;;;;;5050889;28;19944;-88
2024/02/03 06:59:40;;;;;;;;;;;;;;;;;;5050928;28;19944;-91
2024/02/03 07:02:07;;;;;;;;;;;;;;;;;;5050705;28;19941;-86
2024/02/03 07:04:34;;;;;;;;;;;;;;;;;;5052752;28;19933;-87
2024/02/03 07:07:02;;;;;;;;;;;;;;;;;;5049681;28;19929;-79
2024/02/03 07:09:29;;;;;;;;;;;;;;;;;;5051884;28;19936;-86
2024/02/03 07:11:56;;;;;;;;;;;;;;;;;;5054700;28;19929;-87
2024/02/03 07:14:23;;;;;;;;;;;;;;;;;;5050110;28;19935;-86
2024/02/03 07:16:50;;;;;;;;;;;;;;;;;;5049155;28;20365;-88
2024/02/03 07:19:17;;;;;;;;;;;;;;;;;;5049303;28;20010;-87
2024/02/03 07:21:44;;;;;;;;;;;;;;;;;;5051465;28;19936;-84
2024/02/03 07:24:11;;;;;;;;;;;;;;;;;;5050770;28;19950;-85
2024/02/03 07:26:38;;;;;;;;;;;;;;;;;;5049776;28;19932;-85
2024/02/03 07:29:05;;;;;;;;;;;;;;;;;;5051220;28;20006;-87
2024/02/03 07:31:32;;;;;;;;;;;;;;;;;;5049547;28;20046;-85
2024/02/03 07:33:59;;;;;;;;;;;;;;;;;;5050389;28;19928;-85
2024/02/03 07:36:27;;;;;;;;;;;;;;;;;;5050774;28;20420;-86
2024/02/03 07:38:54;;;;;;;;;;;;;;;;;;5049405;28;19964;-85
2024/02/03 07:41:21;;;;;;;;;;;;;;;;;;5050715;28;19983;-86
2024/02/03 07:43:48;;;;;;;;;;;;;;;;;;5050702;28;19978;-86
2024/02/03 07:46:15;;;;;;;;;;;;;;;;;;5058334;28;19985;-85
2024/02/03 07:48:42;;;;;;;;;;;;;;;;;;5049407;28;20374;-83
2024/02/03 07:51:09;;;;;;;;;;;;;;;;;;5049958;28;19929;-86
2024/02/03 07:53:36;;;;;;;;;;;;;;;;;;5051190;28;19929;-84
2024/02/03 07:56:03;;;;;;;;;;;;;;;;;;5050416;28;20471;-85
2024/02/03 07:58:30;;;;;;;;;;;;;;;;;;5049907;28;19960;-83
2024/02/03 08:00:57;;;;;;;;;;;;;;;;;;5049836;28;19929;-83
2024/02/03 08:03:25;;;;;;;;;;;;;;;;;;5053463;28;19932;-84
2024/02/03 08:05:52;;;;;;;;;;;;;;;;;;5052920;28;19959;-85
2024/02/03 08:08:19;;;;;;;;;;;;;;;;;;5053505;28;19940;-91
2024/02/03 08:10:46;;;;;;;;;;;;;;;;;;5057266;28;19925;-85
2024/02/03 08:13:13;;;;;;;;;;;;;;;;;;5056274;28;19928;-89
2024/02/03 08:15:40;;;;;;;;;;;;;;;;;;5056007;28;19968;-88
2024/02/03 08:18:07;;;;;;;;;;;;;;;;;;5053561;28;19937;-92
2024/02/03 08:20:34;;;;;;;;;;;;;;;;;;5041554;28;19929;-87
2024/02/03 08:23:02;;;;;;;;;;;;;;;;;;5045338;28;20230;-85
2024/02/03 08:25:29;;;;;;;;;;;;;;;;;;5057102;28;19932;-87
2024/02/03 08:27:56;;;;;;;;;;;;;;;;;;5057088;28;20411;-80
2024/02/03 08:30:23;;;;;;;;;;;;;;;;;;5056100;28;19936;-85
2024/02/03 08:32:50;;;;;;;;;;;;;;;;;;5052332;28;19987;-92
2024/02/03 08:35:17;;;;;;;;;;;;;;;;;;5049110;28;19928;-81
2024/02/03 08:37:44;;;;;;;;;;;;;;;;;;5046283;28;19928;-80
2024/02/03 08:40:12;;;;;;;;;;;;;;;;;;5045927;28;19964;-85
2024/02/03 08:42:39;;;;;;;;;;;;;;;;;;5049960;28;19936;-83
2024/02/03 08:45:07;;;;;;;;;;;;;;;;;;5048843;28;19987;-83
2024/02/03 08:47:34;;;;;;;;;;;;;;;;;;5051934;28;20346;-82
2024/02/03 08:50:01;;;;;;;;;;;;;;;;;;5048174;28;19928;-84
2024/02/03 08:52:28;;;;;;;;;;;;;;;;;;5047963;28;19932;-83
2024/02/03 08:54:55;;;;;;;;;;;;;;;;;;5045834;28;20012;-83
2024/02/03 08:57:22;;;;;;;;;;;;;;;;;;5056662;28;19929;-78
2024/02/03 08:59:50;;;;;;;;;;;;;;;;;;5051160;28;20015;-81
2024/02/03 09:02:17;;;;;;;;;;;;;;;;;;5047357;28;20350;-79
2024/02/03 09:04:44;;;;;;;;;;;;;;;;;;5040913;28;19971;-83
2024/02/03 09:07:11;;;;;;;;;;;;;;;;;;5047301;28;19935;-87
2024/02/03 09:09:38;;;;;;;;;;;;;;;;;;5043268;28;19988;-84
2024/02/03 09:12:05;;;;;;;;;;;;;;;;;;5045797;28;20007;-85
2024/02/03 09:14:33;;;;;;;;;;;;;;;;;;5051275;28;19929;-84
2024/02/03 09:17:00;;;;;;;;;;;;;;;;;;5048754;28;20013;-85
2024/02/03 09:19:27;;;;;;;;;;;;;;;;;;5049048;28;19995;-87
2024/02/03 09:21:54;;;;;;;;;;;;;;;;;;5049692;28;19971;-87
2024/02/03 09:24:21;;;;;;;;;;;;;;;;;;5043553;28;20026;-85
2024/02/03 09:26:48;;;;;;;;;;;;;;;;;;5046967;28;19941;-85
2024/02/03 09:29:16;;;;;;;;;;;;;;;;;;5046751;28;20027;-87
2024/02/03 09:31:43;;;;;;;;;;;;;;;;;;5046205;28;19949;-87
2024/02/03 09:34:10;;;;;;;;;;;;;;;;;;5048557;28;20071;-87
2024/02/03 09:36:37;;;;;;;;;;;;;;;;;;5049015;28;19936;-86
2024/02/03 09:39:04;;;;;;;;;;;;;;;;;;5042374;28;20295;-86
2024/02/03 09:41:31;;;;;;;;;;;;;;;;;;5047961;28;19972;-84
2024/02/03 09:43:58;;;;;;;;;;;;;;;;;;5046956;28;19968;-87
2024/02/03 09:46:25;;;;;;;;;;;;;;;;;;5050043;28;19967;-83
2024/02/03 09:48:52;;;;;;;;;;;;;;;;;;5042459;28;20482;-81
2024/02/03 09:51:19;;;;;;;;;;;;;;;;;;5046127;28;19959;-81
2024/02/03 09:53:46;;;;;;;;;;;;;;;;;;5049804;28;19976;-83
2024/02/03 09:56:13;;;;;;;;;;;;;;;;;;5049485;28;19979;-85
2024/02/03 09:58:40;;;;;;;;;;;;;;;;;;5047790;28;19976;-82
2024/02/03 10:01:08;;;;;;;;;;;;;;;;;;5052692;28;20067;-82
2024/02/03 10:03:35;;;;;;;;;;;;;;;;;;5051915;28;20445;-86
2024/02/03 10:06:02;;;;;;;;;;;;;;;;;;5050065;28;19979;-89
2024/02/03 10:08:29;;;;;;;;;;;;;;;;;;5049320;28;19982;-90
2024/02/03 10:10:56;;;;;;;;;;;;;;;;;;5053349;28;19967;-88
2024/02/03 10:13:23;;;;;;;;;;;;;;;;;;5051743;28;19932;-89
2024/02/03 10:15:50;;;;;;;;;;;;;;;;;;5051025;28;20409;-89
2024/02/03 10:18:17;;;;;;;;;;;;;;;;;;5051737;28;20380;-88
2024/02/03 10:20:44;;;;;;;;;;;;;;;;;;5049468;28;19972;-87
2024/02/03 10:23:11;;;;;;;;;;;;;;;;;;5048450;28;20006;-88
2024/02/03 10:25:38;;;;;;;;;;;;;;;;;;5054211;28;20376;-90
2024/02/03 10:28:05;;;;;;;;;;;;;;;;;;5054736;28;20011;-91
2024/02/03 10:30:32;;;;;;;;;;;;;;;;;;5050796;28;19928;-90
2024/02/03 10:33:00;;;;;;;;;;;;;;;;;;5055383;28;19951;-90
2024/02/03 10:35:27;;;;;;;;;;;;;;;;;;5054664;28;19983;-90
2024/02/03 10:37:54;;;;;;;;;;;;;;;;;;5053463;28;20263;-88
2024/02/03 10:40:21;;;;;;;;;;;;;;;;;;5055790;28;20415;-86
2024/02/03 10:42:48;;;;;;;;;;;;;;;;;;5051534;28;19943;-91
2024/02/03 10:45:15;;;;;;;;;;;;;;;;;;5049915;28;20379;-88
2024/02/03 10:47:42;;;;;;;;;;;;;;;;;;5046825;28;20697;-90
2024/02/03 10:50:10;;;;;;;;;;;;;;;;;;5050062;28;20029;-91
2024/02/03 10:52:37;;;;;;;;;;;;;;;;;;5048465;28;20467;-92
2024/02/03 10:55:04;;;;;;;;;;;;;;;;;;5052054;28;19928;-93
2024/02/03 10:57:31;;;;;;;;;;;;;;;;;;5049248;28;19929;-91
2024/02/03 10:59:58;;;;;;;;;;;;;;;;;;5051766;28;19932;-88
2024/02/03 11:02:25;;;;;;;;;;;;;;;;;;5050368;28;19982;-92
2024/02/03 11:04:52;;;;;;;;;;;;;;;;;;5064984;28;19988;-87
2024/02/03 11:07:19;;;;;;;;;;;;;;;;;;5067180;28;19928;-90
2024/02/03 11:09:46;;;;;;;;;;;;;;;;;;5068921;28;19955;-86
2024/02/03 11:12:16;;;;;;;;;;;;;;;;;;5066990;28;19958;-93
2024/02/03 11:14:43;;;;;;;;;;;;;;;;;;5049830;28;19929;-82
2024/02/03 11:17:10;;;;;;;;;;;;;;;;;;5047872;28;19995;-91
2024/02/03 11:19:38;;;;;;;;;;;;;;;;;;5053525;28;20055;-90
2024/02/03 11:22:05;;;;;;;;;;;;;;;;;;5059461;28;19935;-90
2024/02/03 11:24:33;;;;;;;;;;;;;;;;;;5061953;28;19929;-90
2024/02/03 11:27:02;;;;;;;;;;;;;;;;;;5057737;28;19944;-88
2024/02/03 11:29:30;;;;;;;;;;;;;;;;;;5051874;28;20205;-91
2024/02/03 11:31:57;;;;;;;;;;;;;;;;;;5051436;28;19929;-91
2024/02/03 11:34:24;;;;;;;;;;;;;;;;;;5053913;28;20455;-88
2024/02/03 11:36:51;;;;;;;;;;;;;;;;;;5055871;28;19928;-91
2024/02/03 11:39:18;;;;;;;;;;;;;;;;;;5055747;28;20320;-91
2024/02/03 11:41:45;;;;;;;;;;;;;;;;;;5055525;28;20002;-92
2024/02/03 11:44:12;;;;;;;;;;;;;;;;;;5056631;28;20291;-89
2024/02/03 11:46:40;;;;;;;;;;;;;;;;;;5059438;28;19928;-91
2024/02/03 11:49:07;;;;;;;;;;;;;;;;;;5059833;28;19935;-86
2024/02/03 11:51:34;;;;;;;;;;;;;;;;;;5057734;28;19926;-93
2024/02/03 11:54:01;;;;;;;;;;;;;;;;;;5058665;28;19936;-86
2024/02/03 11:56:28;;;;;;;;;;;;;;;;;;5054239;28;20012;-93
2024/02/03 11:58:56;;;;;;;;;;;;;;;;;;5050868;28;19935;-89
2024/02/03 12:01:23;;;;;;;;;;;;;;;;;;5057158;28;19959;-92
2024/02/03 12:03:50;;;;;;;;;;;;;;;;;;5058831;28;19936;-90
2024/02/03 12:06:17;;;;;;;;;;;;;;;;;;5050185;28;19929;-89
2024/02/03 12:08:44;;;;;;;;;;;;;;;;;;5055505;28;19932;-91
2024/02/03 12:11:11;;;;;;;;;;;;;;;;;;5058866;28;19970;-90
2024/02/03 12:13:38;;;;;;;;;;;;;;;;;;5053354;28;19924;-86
2024/02/03 12:16:06;;;;;;;;;;;;;;;;;;5052737;28;20006;-88
2024/02/03 12:18:33;;;;;;;;;;;;;;;;;;5057235;28;19931;-88
2024/02/03 12:21:00;;;;;;;;;;;;;;;;;;5053342;28;19976;-83
2024/02/03 12:23:27;;;;;;;;;;;;;;;;;;5056547;28;19975;-88
2024/02/03 12:25:54;;;;;;;;;;;;;;;;;;5059425;28;19936;-90
2024/02/03 12:28:22;;;;;;;;;;;;;;;;;;5060126;28;19975;-92
2024/02/03 12:30:49;;;;;;;;;;;;;;;;;;5061535;28;20387;-88
2024/02/03 12:33:16;;;;;;;;;;;;;;;;;;5055930;28;19968;-87
2024/02/03 12:35:43;;;;;;;;;;;;;;;;;;5057232;28;19929;-88
2024/02/03 12:38:10;;;;;;;;;;;;;;;;;;5061323;28;19933;-87
2024/02/03 12:40:38;;;;;;;;;;;;;;;;;;5061062;28;19986;-90
2024/02/03 12:43:05;;;;;;;;;;;;;;;;;;5058467;28;19998;-89
2024/02/03 12:45:32;;;;;;;;;;;;;;;;;;5057662;28;19929;-86
2024/02/03 12:47:59;;;;;;;;;;;;;;;;;;5059589;28;19929;-89
2024/02/03 12:50:26;;;;;;;;;;;;;;;;;;5056050;28;19928;-89
2024/02/03 12:52:53;;;;;;;;;;;;;;;;;;5057473;28;19937;-87
2024/02/03 12:55:20;;;;;;;;;;;;;;;;;;5055976;28;19991;-87
2024/02/03 12:57:47;;;;;;;;;;;;;;;;;;5056794;28;20690;-88
2024/02/03 13:00:14;;;;;;;;;;;;;;;;;;5056587;28;19959;-89
2024/02/03 13:02:41;;;;;;;;;;;;;;;;;;5057758;28;19929;-91
2024/02/03 13:05:08;;;;;;;;;;;;;;;;;;5060449;28;19959;-89
2024/02/03 13:07:35;;;;;;;;;;;;;;;;;;5058489;28;19928;-91
2024/02/03 13:10:02;;;;;;;;;;;;;;;;;;5060566;28;19974;-89
2024/02/03 13:12:30;;;;;;;;;;;;;;;;;;5055909;28;20422;-90
2024/02/03 13:14:57;;;;;;;;;;;;;;;;;;5053302;28;20012;-89
2024/02/03 13:17:26;;;;;;;;;;;;;;;;;;5053107;28;20411;-91
2024/02/03 13:19:54;;;;;;;;;;;;;;;;;;5055792;28;19951;-89
2024/02/03 13:22:21;;;;;;;;;;;;;;;;;;5056732;28;19933;-91
2024/02/03 13:24:48;;;;;;;;;;;;;;;;;;5061052;28;19973;-90
2024/02/03 13:27:15;;;;;;;;;;;;;;;;;;5055370;28;20447;-88
2024/02/03 13:29:42;;;;;;;;;;;;;;;;;;5054236;28;19933;-86
2024/02/03 13:32:09;;;;;;;;;;;;;;;;;;5058944;28;19928;-90
2024/02/03 13:34:36;;;;;;;;;;;;;;;;;;5055114;28;19986;-87
2024/02/03 13:37:03;;;;;;;;;;;;;;;;;;5049446;28;20012;-88
2024/02/03 13:39:30;;;;;;;;;;;;;;;;;;5055597;28;20336;-89
2024/02/03 13:41:57;;;;;;;;;;;;;;;;;;5059531;28;19928;-88
2024/02/03 13:44:24;;;;;;;;;;;;;;;;;;5057807;28;19992;-91
2024/02/03 13:46:51;;;;;;;;;;;;;;;;;;5064232;28;20383;-90
2024/02/03 13:49:18;;;;;;;;;;;;;;;;;;5056428;28;19929;-90
2024/02/03 13:51:49;;;;;;;;;;;;;;;;;;5055772;28;19935;-90
2024/02/03 13:54:16;;;;;;;;;;;;;;;;;;5055584;28;19933;-89
2024/02/03 13:56:43;;;;;;;;;;;;;;;;;;5055522;28;20441;-88
2024/02/03 13:59:10;;;;;;;;;;;;;;;;;;5053502;28;19971;-88
2024/02/03 14:01:37;;;;;;;;;;;;;;;;;;5053868;28;19983;-90
2024/02/03 14:04:04;;;;;;;;;;;;;;;;;;5055574;28;19976;-90
2024/02/03 14:06:31;;;;;;;;;;;;;;;;;;5055733;28;19994;-89
2024/02/03 14:08:58;;;;;;;;;;;;;;;;;;5056187;28;19928;-88
2024/02/03 14:11:25;;;;;;;;;;;;;;;;;;5055479;28;19929;-90
2024/02/03 14:13:52;;;;;;;;;;;;;;;;;;5055199;28;19929;-90
2024/02/03 14:16:19;;;;;;;;;;;;;;;;;;5053175;28;19964;-88
2024/02/03 14:18:47;;;;;;;;;;;;;;;;;;5056871;28;19935;-89
2024/02/03 14:21:14;;;;;;;;;;;;;;;;;;5058046;28;20353;-85
2024/02/03 14:23:41;;;;;;;;;;;;;;;;;;5053903;28;19929;-87
2024/02/03 14:26:08;;;;;;;;;;;;;;;;;;5052863;28;19929;-88
2024/02/03 14:28:35;;;;;;;;;;;;;;;;;;5050955;28;20050;-88
2024/02/03 14:31:02;;;;;;;;;;;;;;;;;;5054543;28;19929;-87
2024/02/03 14:33:29;;;;;;;;;;;;;;;;;;5055644;28;19983;-92
2024/02/03 14:35:57;;;;;;;;;;;;;;;;;;5051439;28;20272;-92
2024/02/03 14:38:24;;;;;;;;;;;;;;;;;;5049960;28;19997;-90
2024/02/03 14:40:51;;;;;;;;;;;;;;;;;;5053252;28;19987;-86
2024/02/03 14:43:18;;;;;;;;;;;;;;;;;;5052408;28;19929;-89
2024/02/03 14:45:45;;;;;;;;;;;;;;;;;;5054802;28;19959;-88
2024/02/03 14:48:12;;;;;;;;;;;;;;;;;;5053754;28;19933;-83
2024/02/03 14:50:39;;;;;;;;;;;;;;;;;;5053734;28;19972;-86
2024/02/03 14:53:06;;;;;;;;;;;;;;;;;;5052314;28;19929;-88
2024/02/03 14:55:33;;;;;;;;;;;;;;;;;;5057097;28;19941;-86
2024/02/03 14:58:00;;;;;;;;;;;;;;;;;;5059976;28;19925;-89
2024/02/03 15:00:28;;;;;;;;;;;;;;;;;;5049044;28;19932;-89
2024/02/03 15:02:55;;;;;;;;;;;;;;;;;;5053767;28;19935;-87
2024/02/03 15:05:22;;;;;;;;;;;;;;;;;;5057080;28;19925;-90
2024/02/03 15:07:49;;;;;;;;;;;;;;;;;;5066935;28;19929;-89
2024/02/03 15:10:16;;;;;;;;;;;;;;;;;;5058308;28;19986;-89
2024/02/03 15:12:43;;;;;;;;;;;;;;;;;;5060679;28;19955;-89
2024/02/03 15:15:10;;;;;;;;;;;;;;;;;;5056619;28;19925;-90
2024/02/03 15:17:37;;;;;;;;;;;;;;;;;;5059955;28;20008;-89
2024/02/03 15:20:04;;;;;;;;;;;;;;;;;;5060519;28;19928;-90
2024/02/03 15:22:31;;;;;;;;;;;;;;;;;;5050284;28;19929;-89
2024/02/03 15:24:59;;;;;;;;;;;;;;;;;;5059904;28;19971;-92
2024/02/03 15:27:26;;;;;;;;;;;;;;;;;;5062018;28;19984;-88
2024/02/03 15:29:53;;;;;;;;;;;;;;;;;;5059021;28;19936;-90
2024/02/03 15:32:20;;;;;;;;;;;;;;;;;;5059292;28;19940;-89
2024/02/03 15:34:47;;;;;;;;;;;;;;;;;;5058794;28;20011;-91
2024/02/03 15:37:14;;;;;;;;;;;;;;;;;;5061575;28;19924;-88
2024/02/03 15:39:41;;;;;;;;;;;;;;;;;;5059875;28;19959;-91
2024/02/03 15:42:08;;;;;;;;;;;;;;;;;;5063074;28;19935;-90
2024/02/03 15:44:35;;;;;;;;;;;;;;;;;;5061092;28;19978;-90
2024/02/03 15:47:02;;;;;;;;;;;;;;;;;;5056453;28;20384;-89
2024/02/03 15:49:29;;;;;;;;;;;;;;;;;;5054135;28;19996;-89
2024/02/03 15:51:56;;;;;;;;;;;;;;;;;;5056834;28;19948;-91
2024/02/03 15:54:23;;;;;;;;;;;;;;;;;;5059207;28;19983;-87
2024/02/03 15:56:50;;;;;;;;;;;;;;;;;;5058415;28;20303;-93
2024/02/03 15:59:18;;;;;;;;;;;;;;;;;;5057172;28;19929;-92
2024/02/03 16:01:45;;;;;;;;;;;;;;;;;;5060741;28;19929;-91
2024/02/03 16:04:12;;;;;;;;;;;;;;;;;;5062094;28;19933;-88
2024/02/03 16:06:39;;;;;;;;;;;;;;;;;;5061187;28;19928;-88
2024/02/03 16:09:06;;;;;;;;;;;;;;;;;;5060518;28;20407;-91
2024/02/03 16:11:33;;;;;;;;;;;;;;;;;;5063594;28;19929;-88
2024/02/03 16:14:00;;;;;;;;;;;;;;;;;;5069090;28;19928;-88
2024/02/03 16:16:27;;;;;;;;;;;;;;;;;;5065273;28;19946;-92
2024/02/03 16:18:54;;;;;;;;;;;;;;;;;;5062212;28;19929;-88
2024/02/03 16:21:21;;;;;;;;;;;;;;;;;;5064037;28;19935;-90
2024/02/03 16:23:48;;;;;;;;;;;;;;;;;;5062539;28;19935;-91
2024/02/03 16:26:16;;;;;;;;;;;;;;;;;;5062034;28;20010;-92
2024/02/03 16:28:43;;;;;;;;;;;;;;;;;;5060748;28;19929;-89
2024/02/03 16:31:11;;;;;;;;;;;;;;;;;;5062279;28;19924;-88
2024/02/03 16:33:39;;;;;;;;;;;;;;;;;;5058034;28;19929;-89
2024/02/03 16:36:06;;;;;;;;;;;;;;;;;;5058884;28;19987;-86
2024/02/03 16:38:33;;;;;;;;;;;;;;;;;;5057351;28;19952;-91
2024/02/03 16:41:00;;;;;;;;;;;;;;;;;;5059069;28;20009;-91
2024/02/03 16:43:27;;;;;;;;;;;;;;;;;;5052398;28;19929;-89